Time;durP1;ratioP1;P1;durP2;ratioP2;P2;SDS_P1;SDS_P2;PMS_P1;PMS_P2;Temp;Humidity;BMP_temperature;BMP_pressure;BME280_temperature;BME280_humidity;BME280_pressure;Samples;Min_cycle;Max_cycle;Signal;HPM_P1;HPM_P2
2024/01/19 00:00:59;;;;;;;80.90;32.55;;;-2.20;99.90;;;;;;5039480;28;20045;-77
2024/01/19 00:03:46;;;;;;;85.13;31.75;;;-2.20;99.90;;;;;;5046901;28;20042;-78
2024/01/19 00:06:37;;;;;;;80.55;32.53;;;-2.20;99.90;;;;;;5044685;28;20553;-77
2024/01/19 00:09:32;;;;;;;77.80;32.08;;;-2.20;99.90;;;;;;5028869;28;20485;-77
2024/01/19 00:12:19;;;;;;;78.03;33.83;;;-2.20;99.90;;;;;;5044416;28;20053;-77
2024/01/19 00:15:09;;;;;;;78.68;32.70;;;-2.20;99.90;;;;;;5048671;28;20165;-78
2024/01/19 00:17:56;;;;;;;72.57;32.13;;;-2.20;99.90;;;;;;5048569;28;20065;-76
2024/01/19 00:20:46;;;;;;;82.55;34.25;;;-2.20;99.90;;;;;;5051158;28;20092;-75
2024/01/19 00:23:34;;;;;;;74.55;30.90;;;-2.20;99.90;;;;;;5049110;28;20075;-74
2024/01/19 00:26:21;;;;;;;73.60;32.70;;;-2.20;99.90;;;;;;5036470;28;20063;-76
2024/01/19 00:29:09;;;;;;;74.20;32.20;;;-2.20;99.90;;;;;;5033932;28;20060;-78
2024/01/19 00:31:56;;;;;;;74.47;33.10;;;-2.20;99.90;;;;;;5037381;28;20048;-78
2024/01/19 00:34:44;;;;;;;83.65;31.15;;;-2.20;99.90;;;;;;5024491;28;20043;-78
2024/01/19 00:37:31;;;;;;;73.18;29.77;;;-2.20;99.90;;;;;;5016545;28;20114;-75
2024/01/19 00:40:19;;;;;;;68.07;29.75;;;-2.30;99.90;;;;;;5027840;28;20052;-78
2024/01/19 00:43:08;;;;;;;61.42;29.92;;;-2.30;99.90;;;;;;5037125;28;20051;-75
2024/01/19 00:45:58;;;;;;;60.22;27.75;;;-2.30;99.90;;;;;;5036064;28;20473;-78
2024/01/19 00:48:45;;;;;;;63.33;26.85;;;-2.30;99.90;;;;;;5034242;28;20036;-77
2024/01/19 00:51:33;;;;;;;68.72;28.98;;;-2.30;99.90;;;;;;5037870;28;20048;-76
2024/01/19 00:54:20;;;;;;;72.15;27.48;;;-2.30;99.90;;;;;;5047633;28;20048;-78
2024/01/19 00:57:09;;;;;;;65.63;27.17;;;-2.30;99.90;;;;;;5035477;28;20042;-78
2024/01/19 00:59:56;;;;;;;66.65;28.77;;;-2.30;99.90;;;;;;5038210;28;20090;-77
2024/01/19 01:02:44;;;;;;;61.05;26.30;;;-2.30;99.90;;;;;;5035475;28;20056;-77
2024/01/19 01:05:33;;;;;;;76.43;31.73;;;-2.30;99.90;;;;;;5036648;28;20045;-77
2024/01/19 01:08:20;;;;;;;77.18;32.28;;;-2.30;99.90;;;;;;5036804;28;20092;-78
2024/01/19 01:11:08;;;;;;;72.35;32.72;;;-2.30;99.90;;;;;;5040152;28;20177;-78
2024/01/19 01:13:56;;;;;;;84.55;32.25;;;-2.30;99.90;;;;;;5049798;28;20112;-76
2024/01/19 01:16:46;;;;;;;61.45;28.52;;;-2.20;99.90;;;;;;5042422;28;20030;-78
2024/01/19 01:19:33;;;;;;;61.85;27.83;;;-2.30;99.90;;;;;;5039702;28;20041;-75
2024/01/19 01:22:23;;;;;;;57.17;26.30;;;-2.30;99.90;;;;;;5034087;28;20132;-77
2024/01/19 01:25:10;;;;;;;67.18;25.60;;;-2.30;99.90;;;;;;5040851;28;20057;-78
2024/01/19 01:27:58;;;;;;;62.80;27.20;;;-2.30;99.90;;;;;;5034159;28;20581;-78
2024/01/19 01:30:45;;;;;;;62.33;29.17;;;-2.20;99.90;;;;;;5023077;28;20133;-79
2024/01/19 01:33:32;;;;;;;61.90;26.88;;;-2.20;99.90;;;;;;5043432;28;20041;-77
2024/01/19 01:36:21;;;;;;;54.58;25.38;;;-2.20;99.90;;;;;;5044662;28;20052;-78
2024/01/19 01:39:11;;;;;;;56.60;25.95;;;-2.20;99.90;;;;;;5038479;28;20529;-76
2024/01/19 01:42:03;;;;;;;69.93;27.30;;;-2.20;99.90;;;;;;5039497;28;20340;-76
2024/01/19 01:44:52;;;;;;;61.50;26.05;;;-2.20;99.90;;;;;;5041106;28;20056;-76
2024/01/19 01:47:40;;;;;;;64.13;27.90;;;-2.20;99.90;;;;;;5033498;28;20045;-77
2024/01/19 01:50:28;;;;;;;74.45;27.63;;;-2.20;99.90;;;;;;5033490;28;20053;-77
2024/01/19 01:53:18;;;;;;;64.47;28.15;;;-2.20;99.90;;;;;;5034443;28;20103;-77
2024/01/19 01:56:05;;;;;;;69.47;29.48;;;-2.30;99.90;;;;;;5022726;28;20053;-78
2024/01/19 01:58:54;;;;;;;64.57;26.95;;;-2.30;99.90;;;;;;5037505;28;20042;-78
2024/01/19 02:01:41;;;;;;;66.55;28.73;;;-2.30;99.90;;;;;;5037852;28;20477;-79
2024/01/19 02:04:33;;;;;;;68.15;26.98;;;-2.30;99.90;;;;;;5034778;28;20195;-76
2024/01/19 02:07:21;;;;;;;88.15;28.60;;;-2.30;99.90;;;;;;5024209;28;20053;-75
2024/01/19 02:10:11;;;;;;;70.90;27.45;;;-2.30;99.90;;;;;;5037833;28;20553;-78
2024/01/19 02:12:59;;;;;;;81.18;28.35;;;-2.30;99.90;;;;;;5023796;28;20063;-77
2024/01/19 02:15:47;;;;;;;62.30;28.13;;;-2.40;99.90;;;;;;5041168;28;20206;-78
2024/01/19 02:18:37;;;;;;;60.58;26.60;;;-2.40;99.90;;;;;;5040833;28;20068;-75
2024/01/19 02:21:26;;;;;;;66.70;28.20;;;-2.40;99.90;;;;;;5046893;28;20040;-77
2024/01/19 02:24:20;;;;;;;59.22;28.60;;;-2.50;99.90;;;;;;5048600;28;20100;-75
2024/01/19 02:27:08;;;;;;;72.75;30.20;;;-2.40;99.90;;;;;;5053865;28;20042;-77
2024/01/19 02:29:56;;;;;;;67.03;28.45;;;-2.40;99.90;;;;;;5037403;28;20056;-78
2024/01/19 02:32:43;;;;;;;70.85;29.15;;;-2.50;99.90;;;;;;5045914;28;20041;-78
2024/01/19 02:35:30;;;;;;;74.05;29.08;;;-2.50;99.90;;;;;;5032368;28;20565;-79
2024/01/19 02:38:18;;;;;;;67.80;29.05;;;-2.50;99.90;;;;;;5023243;28;20668;-79
2024/01/19 02:41:07;;;;;;;73.22;31.35;;;-2.50;99.90;;;;;;5041618;28;20044;-78
2024/01/19 02:43:56;;;;;;;69.38;30.67;;;-2.50;99.90;;;;;;5029543;28;20390;-78
2024/01/19 02:46:48;;;;;;;72.10;29.80;;;-2.50;99.90;;;;;;5040102;28;20040;-77
2024/01/19 02:49:35;;;;;;;69.47;31.92;;;-2.50;99.90;;;;;;5029452;28;20328;-78
2024/01/19 02:52:24;;;;;;;70.32;31.30;;;-2.50;99.90;;;;;;5043975;28;20108;-78
2024/01/19 02:55:13;;;;;;;67.35;28.88;;;-2.50;99.90;;;;;;5027299;28;20087;-76
2024/01/19 02:58:02;;;;;;;75.03;30.10;;;-2.50;99.90;;;;;;5023968;28;20056;-76
2024/01/19 03:00:49;;;;;;;69.72;29.83;;;-2.50;99.90;;;;;;5020342;28;20124;-77
2024/01/19 03:03:38;;;;;;;75.05;30.95;;;-2.50;99.90;;;;;;5048064;28;20060;-76
2024/01/19 03:06:25;;;;;;;64.95;29.45;;;-2.60;99.90;;;;;;5043454;28;20599;-78
2024/01/19 03:09:14;;;;;;;70.97;31.08;;;-2.60;99.90;;;;;;5015463;28;20060;-79
2024/01/19 03:12:03;;;;;;;71.53;30.60;;;-2.60;99.90;;;;;;5036542;28;20464;-77
2024/01/19 03:14:52;;;;;;;66.05;29.77;;;-2.60;99.90;;;;;;5047552;28;20045;-77
2024/01/19 03:17:40;;;;;;;70.70;29.13;;;-2.70;99.90;;;;;;5032115;28;20589;-79
2024/01/19 03:20:27;;;;;;;74.85;30.75;;;-2.80;99.90;;;;;;5036690;28;20132;-77
2024/01/19 03:23:15;;;;;;;70.40;29.77;;;-2.80;99.90;;;;;;5034885;28;20056;-77
2024/01/19 03:26:02;;;;;;;76.10;30.73;;;-2.90;99.90;;;;;;5027317;28;20052;-77
2024/01/19 03:28:51;;;;;;;76.43;31.88;;;-3.00;99.90;;;;;;5021122;28;20589;-76
2024/01/19 03:31:39;;;;;;;71.03;31.80;;;-3.20;99.90;;;;;;5032220;28;20050;-78
2024/01/19 03:34:28;;;;;;;70.82;29.83;;;-3.30;99.90;;;;;;5023481;28;20102;-80
2024/01/19 03:37:15;;;;;;;64.57;30.05;;;-3.50;99.90;;;;;;5029783;28;20179;-77
2024/01/19 03:40:06;;;;;;;72.90;31.02;;;-3.50;99.90;;;;;;5034281;28;20076;-75
2024/01/19 03:42:53;;;;;;;69.20;31.30;;;-3.60;99.90;;;;;;5034162;28;20060;-78
2024/01/19 03:45:41;;;;;;;69.15;31.40;;;-3.70;99.90;;;;;;5040997;28;20050;-79
2024/01/19 03:48:30;;;;;;;84.60;32.55;;;-3.80;99.90;;;;;;5038444;28;20060;-77
2024/01/19 03:51:18;;;;;;;72.25;30.23;;;-3.90;99.90;;;;;;5039714;28;20067;-77
2024/01/19 03:54:07;;;;;;;70.47;30.20;;;-3.90;99.90;;;;;;5027225;28;20041;-77
2024/01/19 03:56:57;;;;;;;76.53;30.75;;;-3.90;99.90;;;;;;5060346;28;20093;-76
2024/01/19 03:59:45;;;;;;;65.78;29.00;;;-3.90;99.90;;;;;;5038414;28;20413;-77
2024/01/19 04:02:33;;;;;;;76.72;32.33;;;-3.80;99.90;;;;;;5053505;28;20132;-76
2024/01/19 04:05:21;;;;;;;65.60;29.35;;;-3.70;99.90;;;;;;5054084;28;20091;-77
2024/01/19 04:08:10;;;;;;;65.43;28.58;;;-3.60;99.90;;;;;;5039710;28;20052;-79
2024/01/19 04:10:57;;;;;;;77.40;31.00;;;-3.50;99.90;;;;;;5039317;28;20483;-77
2024/01/19 04:13:47;;;;;;;88.97;33.15;;;-3.40;99.90;;;;;;5040446;28;20068;-77
2024/01/19 04:16:41;;;;;;;79.95;32.30;;;-3.30;99.90;;;;;;5040909;28;20936;-78
2024/01/19 04:19:29;;;;;;;79.28;31.30;;;-3.20;99.90;;;;;;5035705;28;20036;-78
2024/01/19 04:22:20;;;;;;;71.38;32.03;;;-3.10;99.90;;;;;;5039188;28;20033;-77
2024/01/19 04:25:10;;;;;;;73.50;31.83;;;-3.00;99.90;;;;;;5039355;28;20053;-76
2024/01/19 04:27:57;;;;;;;73.97;31.13;;;-3.00;99.90;;;;;;5046586;28;20172;-74
2024/01/19 04:30:46;;;;;;;76.90;32.38;;;-3.00;99.90;;;;;;5066733;28;20043;-75
2024/01/19 04:33:34;;;;;;;80.25;33.90;;;-2.90;99.90;;;;;;5055966;28;20068;-78
2024/01/19 04:36:22;;;;;;;81.30;33.03;;;-2.90;99.90;;;;;;5029813;28;20045;-75
2024/01/19 04:39:09;;;;;;;80.05;34.40;;;-2.80;99.90;;;;;;5031231;28;20055;-77
2024/01/19 04:42:03;;;;;;;82.35;36.53;;;-2.80;99.90;;;;;;5042286;28;20125;-79
2024/01/19 04:44:51;;;;;;;94.55;35.28;;;-2.80;99.90;;;;;;5033296;28;20041;-77
2024/01/19 04:47:38;;;;;;;92.88;36.90;;;-2.80;99.90;;;;;;5030870;28;20159;-76
2024/01/19 04:50:26;;;;;;;76.03;35.35;;;-2.80;99.90;;;;;;5031871;28;20532;-79
2024/01/19 04:53:13;;;;;;;86.82;35.85;;;-2.80;99.90;;;;;;5032022;28;20514;-78
2024/01/19 04:56:04;;;;;;;74.25;35.00;;;-2.70;99.90;;;;;;5039044;28;20048;-79
2024/01/19 04:58:53;;;;;;;80.43;34.70;;;-2.70;99.90;;;;;;5040099;28;20037;-78
2024/01/19 05:01:40;;;;;;;87.63;35.70;;;-2.70;99.90;;;;;;5042166;28;20296;-77
2024/01/19 05:04:29;;;;;;;87.35;35.45;;;-2.70;99.90;;;;;;5022575;28;20068;-77
2024/01/19 05:07:16;;;;;;;83.07;35.03;;;-2.60;99.90;;;;;;5036648;28;20078;-77
2024/01/19 05:10:05;;;;;;;76.32;32.50;;;-2.70;99.90;;;;;;5024269;28;20048;-76
2024/01/19 05:12:53;;;;;;;80.50;35.35;;;-2.70;99.90;;;;;;5040643;28;20065;-78
2024/01/19 05:15:42;;;;;;;80.28;34.50;;;-2.70;99.90;;;;;;5027909;28;20049;-79
2024/01/19 05:18:31;;;;;;;85.55;34.20;;;-2.70;99.90;;;;;;5038886;28;20037;-78
2024/01/19 05:21:19;;;;;;;82.65;35.17;;;-2.70;99.90;;;;;;5027535;28;20075;-77
2024/01/19 05:24:07;;;;;;;79.03;34.58;;;-2.60;99.90;;;;;;5069417;28;20078;-76
2024/01/19 05:26:54;;;;;;;75.93;33.97;;;-2.60;99.90;;;;;;5054166;28;20037;-76
2024/01/19 05:29:45;;;;;;;73.72;33.13;;;-2.60;99.90;;;;;;5058725;28;20037;-78
2024/01/19 05:32:34;;;;;;;71.78;32.80;;;-2.60;99.90;;;;;;5036405;28;20053;-76
2024/01/19 05:35:23;;;;;;;76.78;32.20;;;-2.70;99.90;;;;;;5036234;28;20046;-76
2024/01/19 05:38:11;;;;;;;66.88;32.35;;;-2.70;99.90;;;;;;5036217;28;20428;-80
2024/01/19 05:41:02;;;;;;;76.28;35.00;;;-2.80;99.90;;;;;;5017380;28;20412;-76
2024/01/19 05:43:49;;;;;;;75.38;32.67;;;-2.80;99.90;;;;;;5041904;28;20351;-78
2024/01/19 05:46:38;;;;;;;65.22;31.38;;;-2.90;99.90;;;;;;5035024;28;20462;-78
2024/01/19 05:49:25;;;;;;;76.55;33.42;;;-2.90;99.90;;;;;;5034970;28;20049;-79
2024/01/19 05:52:12;;;;;;;78.35;35.17;;;-2.90;99.90;;;;;;5026715;28;20073;-75
2024/01/19 05:55:00;;;;;;;94.40;42.72;;;-2.90;99.90;;;;;;5043191;28;20049;-75
2024/01/19 05:57:47;;;;;;;95.85;42.05;;;-2.80;99.90;;;;;;5042631;28;20052;-73
2024/01/19 06:00:34;;;;;;;82.15;36.40;;;-2.80;99.90;;;;;;5047249;28;20752;-74
2024/01/19 06:03:24;;;;;;;82.35;36.85;;;-2.80;99.90;;;;;;5041752;28;20041;-77
2024/01/19 06:06:14;;;;;;;86.15;35.65;;;-2.80;99.90;;;;;;5036318;28;20050;-73
2024/01/19 06:09:02;;;;;;;82.53;34.42;;;-2.80;99.90;;;;;;5043557;28;20057;-77
2024/01/19 06:11:49;;;;;;;81.15;37.88;;;-2.80;99.90;;;;;;5039459;28;20053;-77
2024/01/19 06:14:37;;;;;;;84.78;37.30;;;-2.80;99.90;;;;;;5037550;28;20126;-78
2024/01/19 06:17:24;;;;;;;90.57;40.17;;;-2.80;99.90;;;;;;5037138;28;20041;-77
2024/01/19 06:20:12;;;;;;;80.78;37.42;;;-2.70;99.90;;;;;;5040958;28;20040;-78
2024/01/19 06:22:59;;;;;;;87.45;35.70;;;-2.70;99.90;;;;;;5023020;28;20053;-76
2024/01/19 06:25:47;;;;;;;78.45;34.33;;;-2.80;99.90;;;;;;5021696;28;20581;-77
2024/01/19 06:28:35;;;;;;;73.43;33.60;;;-2.80;99.90;;;;;;5034572;28;20128;-76
2024/01/19 06:31:22;;;;;;;71.50;32.38;;;-2.90;99.90;;;;;;5033131;28;20789;-74
2024/01/19 06:34:09;;;;;;;72.72;33.33;;;-2.90;99.90;;;;;;5038655;28;20049;-75
2024/01/19 06:37:00;;;;;;;76.65;32.97;;;-2.90;99.90;;;;;;5012931;28;20033;-76
2024/01/19 06:39:49;;;;;;;83.28;34.92;;;-3.00;99.90;;;;;;5041404;28;20045;-77
2024/01/19 06:42:37;;;;;;;72.03;32.67;;;-3.10;99.90;;;;;;5046888;28;20045;-76
2024/01/19 06:45:25;;;;;;;80.07;34.38;;;-3.10;99.90;;;;;;5030304;28;20045;-74
2024/01/19 06:48:12;;;;;;;75.45;33.78;;;-3.10;99.90;;;;;;5044338;28;20060;-77
2024/01/19 06:51:00;;;;;;;75.50;33.50;;;-3.20;99.90;;;;;;5041245;28;20140;-75
2024/01/19 06:53:48;;;;;;;80.32;37.65;;;-3.20;99.90;;;;;;5031403;28;20061;-75
2024/01/19 06:56:35;;;;;;;75.72;36.25;;;-3.30;99.90;;;;;;5029582;28;20060;-75
2024/01/19 06:59:23;;;;;;;82.47;36.75;;;-3.30;99.90;;;;;;5033947;28;20083;-78
2024/01/19 07:02:13;;;;;;;72.32;33.50;;;-3.30;99.90;;;;;;5034211;28;20064;-77
2024/01/19 07:05:00;;;;;;;77.22;32.95;;;-3.30;99.90;;;;;;5032664;28;20410;-78
2024/01/19 07:07:49;;;;;;;73.10;32.90;;;-3.30;99.90;;;;;;5035598;28;20363;-79
2024/01/19 07:10:42;;;;;;;79.55;35.15;;;-3.20;99.90;;;;;;5034388;28;20052;-79
2024/01/19 07:13:30;;;;;;;90.20;39.47;;;-3.20;99.90;;;;;;5023524;28;20045;-79
2024/01/19 07:16:19;;;;;;;102.10;42.38;;;-3.20;99.90;;;;;;5025601;28;20049;-77
2024/01/19 07:19:06;;;;;;;110.90;47.17;;;-3.20;99.90;;;;;;5032871;28;20049;-75
2024/01/19 07:21:56;;;;;;;118.47;45.33;;;-3.20;99.90;;;;;;5043664;28;20045;-77
2024/01/19 07:24:43;;;;;;;123.88;46.20;;;-3.20;99.90;;;;;;5045707;28;20167;-76
2024/01/19 07:27:32;;;;;;;105.47;44.20;;;-3.20;99.90;;;;;;5032256;28;20048;-79
2024/01/19 07:30:22;;;;;;;96.13;40.47;;;-3.20;99.90;;;;;;5042037;28;20567;-75
2024/01/19 07:33:10;;;;;;;78.22;35.95;;;-3.10;99.90;;;;;;5043891;28;20033;-80
2024/01/19 07:36:11;;;;;;;75.70;33.53;;;-3.10;99.90;;;;;;5042206;28;20041;-78
2024/01/19 07:38:59;;;;;;;73.28;33.63;;;-3.00;99.90;;;;;;5042754;28;20055;-78
2024/01/19 07:41:46;;;;;;;73.57;31.75;;;-3.00;99.90;;;;;;5060033;28;20067;-77
2024/01/19 07:44:35;;;;;;;64.47;30.38;;;-2.90;99.90;;;;;;5035606;28;20053;-77
2024/01/19 07:47:24;;;;;;;73.25;31.60;;;-2.90;99.90;;;;;;5042228;28;20527;-75
2024/01/19 07:50:12;;;;;;;63.75;29.70;;;-2.90;99.90;;;;;;5060664;28;20037;-76
2024/01/19 07:52:59;;;;;;;61.45;29.48;;;-2.80;99.90;;;;;;5043736;28;20073;-75
2024/01/19 07:55:46;;;;;;;68.07;32.13;;;-2.70;99.90;;;;;;5028698;28;20478;-76
2024/01/19 07:58:34;;;;;;;65.07;30.95;;;-2.70;99.90;;;;;;5032298;28;20044;-76
2024/01/19 08:01:23;;;;;;;74.68;33.03;;;-2.60;99.90;;;;;;5021227;28;20045;-78
2024/01/19 08:04:12;;;;;;;68.93;32.72;;;-2.40;99.90;;;;;;5029679;28;20056;-75
2024/01/19 08:07:00;;;;;;;78.15;35.47;;;-2.20;99.90;;;;;;5029120;28;20044;-76
2024/01/19 08:09:49;;;;;;;96.57;40.95;;;-2.10;99.90;;;;;;5032954;28;20242;-76
2024/01/19 08:12:40;;;;;;;95.78;42.45;;;-2.00;99.90;;;;;;5035965;28;20465;-77
2024/01/19 08:15:29;;;;;;;94.60;40.72;;;-2.10;99.90;;;;;;5044895;28;20045;-76
2024/01/19 08:18:17;;;;;;;83.82;37.10;;;-2.20;99.90;;;;;;5041363;28;20041;-77
2024/01/19 08:21:10;;;;;;;63.78;31.80;;;-2.30;99.90;;;;;;5037652;28;20115;-77
2024/01/19 08:23:57;;;;;;;73.18;31.45;;;-2.30;99.90;;;;;;5018448;28;20056;-77
2024/01/19 08:26:46;;;;;;;66.95;31.95;;;-2.30;99.90;;;;;;5029129;28;20142;-77
2024/01/19 08:29:34;;;;;;;70.15;32.53;;;-2.00;99.90;;;;;;5016829;28;20724;-77
2024/01/19 08:32:23;;;;;;;69.93;29.48;;;-1.70;99.90;;;;;;5031726;28;20049;-76
2024/01/19 08:35:11;;;;;;;60.55;29.85;;;-1.60;99.90;;;;;;5034955;28;20049;-79
2024/01/19 08:38:01;;;;;;;61.10;29.63;;;-1.30;99.90;;;;;;5037282;28;20103;-77
2024/01/19 08:40:48;;;;;;;56.90;28.15;;;-1.00;99.90;;;;;;5017300;28;20037;-77
2024/01/19 08:43:36;;;;;;;56.03;28.92;;;-1.00;99.90;;;;;;5035448;28;20037;-77
2024/01/19 08:46:23;;;;;;;60.88;28.98;;;-0.90;99.90;;;;;;5033175;28;20822;-77
2024/01/19 08:49:11;;;;;;;56.30;27.02;;;-0.80;99.90;;;;;;5030153;28;20052;-77
2024/01/19 08:51:59;;;;;;;50.42;26.55;;;-0.60;99.90;;;;;;5034318;28;20057;-78
2024/01/19 08:54:49;;;;;;;47.92;25.40;;;-0.60;99.90;;;;;;5032060;28;20195;-78
2024/01/19 08:57:37;;;;;;;54.25;24.63;;;-0.70;99.90;;;;;;5039155;28;20045;-77
2024/01/19 09:00:25;;;;;;;44.75;24.02;;;-0.60;99.90;;;;;;5040510;28;20041;-77
2024/01/19 09:03:22;;;;;;;46.67;22.98;;;-0.50;99.90;;;;;;5037720;28;20033;-77
2024/01/19 09:06:11;;;;;;;45.28;24.52;;;-0.50;99.90;;;;;;5032955;28;20049;-78
2024/01/19 09:09:08;;;;;;;45.50;25.10;;;-0.40;99.90;;;;;;5033292;28;20045;-78
2024/01/19 09:11:58;;;;;;;48.75;22.98;;;-0.30;99.90;;;;;;5047007;28;20069;-79
2024/01/19 09:14:48;;;;;;;46.45;22.02;;;-0.10;99.90;;;;;;5035972;28;20049;-79
2024/01/19 09:17:39;;;;;;;37.03;20.20;;;0.00;99.90;;;;;;5036749;28;20052;-78
2024/01/19 09:20:27;;;;;;;35.72;20.23;;;0.10;99.90;;;;;;5039882;28;20041;-79
2024/01/19 09:23:15;;;;;;;34.53;18.10;;;0.40;99.90;;;;;;5036633;28;20143;-77
2024/01/19 09:26:02;;;;;;;28.17;16.85;;;0.60;99.90;;;;;;5037425;28;20045;-78
2024/01/19 09:28:50;;;;;;;35.05;18.95;;;0.70;99.90;;;;;;5035245;28;20049;-77
2024/01/19 09:31:48;;;;;;;29.15;16.20;;;1.20;99.90;;;;;;5033488;28;20493;-77
2024/01/19 09:34:36;;;;;;;28.67;15.68;;;1.20;99.90;;;;;;5031461;28;20037;-78
2024/01/19 09:37:32;;;;;;;27.98;14.80;;;1.40;99.90;;;;;;5029909;28;20759;-79
2024/01/19 09:40:36;;;;;;;24.88;13.18;;;2.10;99.90;;;;;;5037491;28;20064;-79
2024/01/19 09:43:25;;;;;;;20.80;11.98;;;2.60;99.90;;;;;;5040432;28;20056;-79
2024/01/19 09:46:20;;;;;;;18.85;11.85;;;3.10;99.90;;;;;;5034286;28;20059;-79
2024/01/19 09:49:35;;;;;;;24.50;13.43;;;3.80;99.90;;;;;;5041830;28;20140;-76
2024/01/19 09:52:40;;;;;;;20.95;12.63;;;4.80;99.90;;;;;;5036122;28;20124;-79
2024/01/19 09:55:29;;;;;;;19.05;11.35;;;5.40;99.90;;;;;;5047408;28;20112;-76
2024/01/19 09:58:20;;;;;;;19.83;11.13;;;6.10;99.90;;;;;;5039376;28;20498;-76
2024/01/19 10:01:08;;;;;;;16.15;9.45;;;5.60;99.90;;;;;;5038574;28;20049;-78
2024/01/19 10:04:03;;;;;;;19.67;9.82;;;4.70;99.90;;;;;;5036931;28;20041;-77
2024/01/19 10:06:53;;;;;;;19.42;10.55;;;4.20;99.90;;;;;;5032544;28;20234;-76
2024/01/19 10:09:42;;;;;;;17.95;10.02;;;5.10;99.90;;;;;;5070859;28;20041;-76
2024/01/19 10:12:32;;;;;;;17.23;9.15;;;6.00;99.90;;;;;;5030093;28;20916;-78
2024/01/19 10:15:19;;;;;;;15.10;9.55;;;6.80;99.90;;;;;;5039184;28;21594;-76
2024/01/19 10:18:08;;;;;;;17.17;9.75;;;6.90;99.90;;;;;;5044979;28;20147;-78
2024/01/19 10:20:55;;;;;;;12.57;8.65;;;7.00;99.90;;;;;;5044535;28;20048;-77
2024/01/19 10:24:09;;;;;;;13.70;8.73;;;7.60;1.00;;;;;;5057940;28;20084;-77
2024/01/19 10:26:57;;;;;;;15.65;9.25;;;8.60;99.90;;;;;;5062174;28;20072;-76
2024/01/19 10:29:46;;;;;;;14.00;8.65;;;8.20;99.90;;;;;;5056550;28;20073;-76
2024/01/19 10:32:34;;;;;;;13.00;8.98;;;9.10;99.90;;;;;;5027284;28;20048;-76
2024/01/19 10:35:22;;;;;;;13.25;7.95;;;9.30;99.90;;;;;;5036312;28;20518;-77
2024/01/19 10:38:11;;;;;;;12.70;8.27;;;9.70;99.90;;;;;;5034361;28;20055;-77
2024/01/19 10:40:59;;;;;;;14.70;8.00;;;9.60;99.90;;;;;;5039490;28;20048;-77
2024/01/19 10:43:46;;;;;;;16.00;8.10;;;9.60;99.90;;;;;;5042126;28;20123;-77
2024/01/19 10:46:35;;;;;;;13.35;7.95;;;10.40;99.90;;;;;;5028321;28;20373;-77
2024/01/19 10:49:22;;;;;;;14.40;8.18;;;10.00;99.90;;;;;;5049166;28;20044;-77
2024/01/19 10:52:10;;;;;;;9.20;7.15;;;11.00;99.90;;;;;;5060652;28;20057;-75
2024/01/19 10:55:00;;;;;;;12.38;6.70;;;10.60;99.90;;;;;;5038693;28;20455;-75
2024/01/19 10:58:18;;;;;;;9.15;6.20;;;10.30;99.90;;;;;;5023986;28;20381;-77
2024/01/19 11:01:15;;;;;;;10.93;6.97;;;10.20;99.90;;;;;;5030897;28;20052;-78
2024/01/19 11:04:10;;;;;;;11.40;7.20;;;9.10;99.90;;;;;;5023449;28;20048;-77
2024/01/19 11:06:59;;;;;;;14.55;7.15;;;7.60;99.90;;;;;;5034377;28;20060;-76
2024/01/19 11:09:48;;;;;;;11.98;8.02;;;6.60;99.90;;;;;;5046595;28;20668;-80
2024/01/19 11:12:44;;;;;;;14.27;8.40;;;5.50;99.90;;;;;;5048324;28;20132;-76
2024/01/19 11:15:53;;;;;;;18.63;8.70;;;4.20;99.90;;;;;;5030817;28;20055;-76
2024/01/19 11:18:43;;;;;;;17.38;8.95;;;3.20;99.90;;;;;;5034127;28;20092;-77
2024/01/19 11:21:33;;;;;;;14.55;9.20;;;2.50;99.90;;;;;;5037277;28;20040;-76
2024/01/19 11:24:23;;;;;;;12.57;8.95;;;2.40;99.90;;;;;;5047465;28;20044;-76
2024/01/19 11:27:25;;;;;;;13.82;8.73;;;2.30;99.90;;;;;;5038640;28;20080;-77
2024/01/19 11:30:28;;;;;;;14.75;8.63;;;2.40;99.90;;;;;;5037976;28;20048;-76
2024/01/19 11:33:17;;;;;;;13.43;7.78;;;2.20;99.90;;;;;;5036407;28;20782;-77
2024/01/19 11:36:05;;;;;;;15.00;7.55;;;2.10;99.90;;;;;;5042289;28;20048;-77
2024/01/19 11:38:54;;;;;;;10.55;6.93;;;2.20;99.90;;;;;;5040695;28;20646;-77
2024/01/19 11:41:44;;;;;;;12.82;7.90;;;2.60;99.90;;;;;;5033572;28;20056;-76
2024/01/19 11:44:45;;;;;;;10.02;6.65;;;3.80;99.90;;;;;;5034380;28;20053;-76
2024/01/19 11:47:36;;;;;;;12.52;6.07;;;4.20;99.90;;;;;;5031211;28;20498;-75
2024/01/19 11:50:46;;;;;;;14.23;6.75;;;6.00;99.90;;;;;;5032966;28;20132;-76
2024/01/19 11:54:02;;;;;;;6.95;4.45;;;7.60;99.90;;;;;;5037373;28;20855;-77
2024/01/19 11:56:50;;;;;;;5.25;3.75;;;8.40;99.90;;;;;;5039217;28;20033;-78
2024/01/19 11:59:39;;;;;;;9.57;5.00;;;8.30;99.90;;;;;;5034078;28;21752;-78
2024/01/19 12:02:30;;;;;;;8.15;4.85;;;8.60;99.90;;;;;;5034135;28;20131;-76
2024/01/19 12:05:22;;;;;;;8.73;5.15;;;9.10;99.90;;;;;;5031936;28;20052;-79
2024/01/19 12:08:15;;;;;;;9.32;5.65;;;9.10;99.90;;;;;;5037798;28;20053;-77
2024/01/19 12:11:06;;;;;;;7.80;4.75;;;7.80;94.40;;;;;;5036732;28;20110;-76
2024/01/19 12:13:57;;;;;;;7.07;4.80;;;6.70;92.70;;;;;;5019502;28;20057;-77
2024/01/19 12:16:55;;;;;;;6.95;5.05;;;6.00;92.70;;;;;;5034809;28;20136;-77
2024/01/19 12:19:44;;;;;;;7.13;4.80;;;5.10;90.60;;;;;;5033453;28;20132;-77
2024/01/19 12:22:32;;;;;;;9.55;6.03;;;4.60;96.70;;;;;;5035973;28;20045;-75
2024/01/19 12:25:24;;;;;;;10.43;6.22;;;4.00;99.90;;;;;;5033958;28;20049;-76
2024/01/19 12:28:15;;;;;;;14.07;6.78;;;3.40;99.90;;;;;;5038820;28;20033;-76
2024/01/19 12:31:19;;;;;;;13.98;6.68;;;2.90;99.90;;;;;;5037515;28;20498;-75
2024/01/19 12:34:11;;;;;;;9.68;6.55;;;2.40;99.90;;;;;;5041684;28;20045;-75
2024/01/19 12:37:00;;;;;;;13.35;7.32;;;2.20;99.90;;;;;;5050996;28;20097;-74
2024/01/19 12:39:48;;;;;;;14.77;7.30;;;2.20;99.90;;;;;;5058720;28;20235;-76
2024/01/19 12:42:38;;;;;;;10.95;6.68;;;2.20;99.90;;;;;;5038971;28;20616;-77
2024/01/19 12:45:29;;;;;;;8.40;6.07;;;2.20;99.90;;;;;;5030970;28;20044;-77
2024/01/19 12:48:18;;;;;;;13.10;7.32;;;2.20;99.90;;;;;;5041081;28;20056;-78
2024/01/19 12:51:15;;;;;;;12.38;7.03;;;2.10;99.90;;;;;;5040330;28;20641;-76
2024/01/19 12:54:05;;;;;;;11.10;5.88;;;1.80;99.90;;;;;;5040078;28;20057;-79
2024/01/19 12:56:53;;;;;;;10.63;6.57;;;1.40;99.90;;;;;;5026528;28;20045;-77
2024/01/19 12:59:43;;;;;;;9.27;5.45;;;1.80;99.90;;;;;;5047016;28;20041;-78
2024/01/19 13:02:30;;;;;;;6.72;4.00;;;3.60;99.90;;;;;;5026683;28;20051;-77
2024/01/19 13:05:22;;;;;;;7.05;4.00;;;5.60;99.90;;;;;;5049515;28;20049;-77
2024/01/19 13:08:10;;;;;;;6.05;4.05;;;5.60;99.90;;;;;;5040134;28;20036;-77
2024/01/19 13:11:07;;;;;;;6.57;3.78;;;5.60;99.90;;;;;;5048571;28;20052;-76
2024/01/19 13:14:01;;;;;;;5.80;3.80;;;7.00;99.90;;;;;;5035135;28;20057;-77
2024/01/19 13:16:53;;;;;;;7.07;3.80;;;8.30;99.90;;;;;;5024071;28;20730;-77
2024/01/19 13:19:43;;;;;;;6.53;3.70;;;8.90;99.90;;;;;;5024816;28;20049;-75
2024/01/19 13:22:41;;;;;;;4.68;3.13;;;9.40;99.90;;;;;;5032012;28;20570;-77
2024/01/19 13:25:37;;;;;;;4.22;3.30;;;10.70;95.50;;;;;;5034697;28;20095;-76
2024/01/19 13:28:26;;;;;;;6.22;3.60;;;10.50;84.80;;;;;;5037786;28;20049;-75
2024/01/19 13:31:15;;;;;;;4.15;3.13;;;10.50;62.80;;;;;;5030697;28;20409;-76
2024/01/19 13:34:03;;;;;;;8.57;3.60;;;11.00;64.50;;;;;;5041691;28;20056;-76
2024/01/19 13:36:52;;;;;;;6.15;3.58;;;10.30;50.60;;;;;;5042678;28;20258;-75
2024/01/19 13:39:40;;;;;;;6.47;3.47;;;10.30;38.50;;;;;;5049072;28;20037;-76
2024/01/19 13:42:31;;;;;;;5.75;3.60;;;11.00;33.80;;;;;;5051971;28;20132;-77
2024/01/19 13:45:20;;;;;;;6.25;3.38;;;11.00;28.50;;;;;;5033763;28;20033;-78
2024/01/19 13:48:24;;;;;;;4.30;3.00;;;11.70;23.30;;;;;;5039936;28;20080;-77
2024/01/19 13:51:18;;;;;;;4.25;3.00;;;12.60;20.30;;;;;;5044714;28;20056;-77
2024/01/19 13:54:06;;;;;;;4.65;3.10;;;11.90;17.20;;;;;;5073799;28;20071;-76
2024/01/19 13:56:55;;;;;;;7.03;2.90;;;12.20;16.20;;;;;;5052903;28;20037;-79
2024/01/19 13:59:44;;;;;;;4.22;2.58;;;11.80;11.10;;;;;;5041941;28;20041;-79
2024/01/19 14:02:35;;;;;;;3.45;2.47;;;11.40;3.90;;;;;;5038390;28;20060;-78
2024/01/19 14:05:25;;;;;;;5.55;2.55;;;11.00;11.30;;;;;;5044765;28;20045;-78
2024/01/19 14:08:18;;;;;;;3.17;2.53;;;10.60;1.00;;;;;;5027243;28;20128;-78
2024/01/19 14:11:13;;;;;;;3.67;2.28;;;10.70;7.20;;;;;;5043013;28;20124;-78
2024/01/19 14:14:03;;;;;;;4.65;2.90;;;11.00;1.00;;;;;;5044128;28;20099;-79
2024/01/19 14:16:51;;;;;;;5.05;3.30;;;11.60;1.00;;;;;;5038577;28;20124;-77
2024/01/19 14:19:42;;;;;;;3.33;2.90;;;11.40;1.00;;;;;;5042250;28;20560;-78
2024/01/19 14:22:31;;;;;;;4.07;2.80;;;11.60;1.00;;;;;;5024690;28;20517;-78
2024/01/19 14:25:19;;;;;;;4.82;2.60;;;10.80;1.00;;;;;;5043320;28;20130;-77
2024/01/19 14:28:12;;;;;;;6.00;3.40;;;10.40;1.00;;;;;;5041785;28;20049;-78